Time;durP1;ratioP1;P1;durP2;ratioP2;P2;SDS_P1;SDS_P2;PMS_P1;PMS_P2;Temp;Humidity;BMP_temperature;BMP_pressure;BME280_temperature;BME280_humidity;BME280_pressure;Samples;Min_cycle;Max_cycle;Signal;HPM_P1;HPM_P2
2022/12/21 00:00:50;;;;;;;20.23;9.25;;;;;;;;;;4990406;28;20104;-71
2022/12/21 00:03:15;;;;;;;16.10;9.48;;;;;;;;;;4987845;28;20467;-71
2022/12/21 00:05:40;;;;;;;21.40;10.10;;;;;;;;;;4988709;28;20038;-71
2022/12/21 00:08:05;;;;;;;20.03;9.37;;;;;;;;;;4990728;28;20261;-71
2022/12/21 00:10:30;;;;;;;18.97;9.83;;;;;;;;;;4990410;28;20627;-71
2022/12/21 00:12:56;;;;;;;21.90;9.93;;;;;;;;;;4990637;28;20266;-71
2022/12/21 00:15:21;;;;;;;17.63;8.70;;;;;;;;;;4989952;28;20277;-71
2022/12/21 00:17:46;;;;;;;20.67;10.07;;;;;;;;;;4990202;28;20757;-71
2022/12/21 00:20:11;;;;;;;17.97;9.23;;;;;;;;;;4985927;28;20357;-71
2022/12/21 00:22:36;;;;;;;20.45;10.13;;;;;;;;;;4988898;28;20269;-71
2022/12/21 00:25:02;;;;;;;22.27;10.00;;;;;;;;;;4990747;28;20029;-71
2022/12/21 00:27:27;;;;;;;19.05;8.82;;;;;;;;;;4989788;28;20327;-71
2022/12/21 00:29:52;;;;;;;18.97;8.53;;;;;;;;;;4990404;28;20018;-71
2022/12/21 00:32:17;;;;;;;15.53;8.67;;;;;;;;;;4990364;28;20281;-71
2022/12/21 00:34:42;;;;;;;17.30;9.57;;;;;;;;;;4989551;28;20277;-71
2022/12/21 00:37:07;;;;;;;19.15;9.48;;;;;;;;;;4989842;28;20257;-71
2022/12/21 00:39:33;;;;;;;15.17;8.43;;;;;;;;;;4986316;28;20010;-71
2022/12/21 00:41:58;;;;;;;20.20;10.20;;;;;;;;;;4990188;28;20257;-71
2022/12/21 00:44:23;;;;;;;16.33;9.30;;;;;;;;;;4990373;28;20246;-71
2022/12/21 00:46:48;;;;;;;17.38;9.68;;;;;;;;;;4990270;28;20258;-74
2022/12/21 00:49:13;;;;;;;21.60;9.88;;;;;;;;;;4989632;28;20490;-71
2022/12/21 00:51:39;;;;;;;18.58;10.38;;;;;;;;;;4989644;28;20104;-71
2022/12/21 00:54:04;;;;;;;20.77;9.87;;;;;;;;;;4984094;28;20054;-70
2022/12/21 00:56:29;;;;;;;22.20;10.98;;;;;;;;;;4989984;28;20285;-71
2022/12/21 00:58:54;;;;;;;18.83;10.35;;;;;;;;;;4990365;28;20018;-70
2022/12/21 01:01:23;;;;;;;17.73;11.23;;;;;;;;;;4988825;28;20019;-71
2022/12/21 01:03:49;;;;;;;20.48;10.88;;;;;;;;;;4989698;28;20478;-70
2022/12/21 01:06:15;;;;;;;18.73;10.68;;;;;;;;;;4990685;28;20084;-71
2022/12/21 01:08:41;;;;;;;21.58;11.45;;;;;;;;;;4993765;28;20439;-70
2022/12/21 01:11:07;;;;;;;21.42;11.65;;;;;;;;;;4992403;28;20045;-71
2022/12/21 01:13:32;;;;;;;16.90;9.93;;;;;;;;;;4993501;28;20061;-70
2022/12/21 01:15:57;;;;;;;18.60;10.50;;;;;;;;;;4993613;28;20026;-70
2022/12/21 01:18:23;;;;;;;24.77;10.20;;;;;;;;;;4991864;28;20046;-70
2022/12/21 01:20:49;;;;;;;17.20;9.10;;;;;;;;;;4992957;28;20406;-74
2022/12/21 01:23:15;;;;;;;25.20;10.25;;;;;;;;;;4993217;28;20014;-72
2022/12/21 01:25:44;;;;;;;17.98;8.90;;;;;;;;;;4991875;28;20423;-70
2022/12/21 01:28:09;;;;;;;20.13;9.35;;;;;;;;;;4991608;28;20101;-72
2022/12/21 01:30:35;;;;;;;18.58;9.80;;;;;;;;;;4992099;28;20057;-70
2022/12/21 01:33:00;;;;;;;17.85;9.27;;;;;;;;;;4992791;28;20010;-70
2022/12/21 01:35:25;;;;;;;19.87;10.13;;;;;;;;;;4992084;28;20023;-71
2022/12/21 01:37:50;;;;;;;20.52;11.18;;;;;;;;;;4992673;28;20290;-70
2022/12/21 01:40:16;;;;;;;17.17;10.93;;;;;;;;;;4992611;28;20061;-71
2022/12/21 01:42:41;;;;;;;23.40;12.65;;;;;;;;;;4991086;28;20030;-70
2022/12/21 01:45:14;;;;;;;32.93;15.10;;;;;;;;;;4990853;28;20033;-72
2022/12/21 01:47:49;;;;;;;37.33;15.07;;;;;;;;;;4991885;28;20270;-70
2022/12/21 01:50:32;;;;;;;30.20;15.15;;;;;;;;;;4988159;28;20045;-70
2022/12/21 01:52:59;;;;;;;26.38;14.02;;;;;;;;;;4990136;28;20018;-71
2022/12/21 01:55:25;;;;;;;25.83;12.60;;;;;;;;;;4991378;28;20064;-71
2022/12/21 01:57:50;;;;;;;31.98;13.73;;;;;;;;;;4992041;28;20010;-71
2022/12/21 02:00:16;;;;;;;27.55;12.55;;;;;;;;;;4987955;28;20007;-70
2022/12/21 02:02:52;;;;;;;20.25;11.55;;;;;;;;;;4991391;28;20634;-70
2022/12/21 02:05:36;;;;;;;19.73;10.23;;;;;;;;;;4992340;28;20018;-71
2022/12/21 02:08:03;;;;;;;23.00;11.27;;;;;;;;;;4990230;28;20065;-70
2022/12/21 02:10:28;;;;;;;28.70;12.45;;;;;;;;;;4990723;28;20042;-71
2022/12/21 02:12:57;;;;;;;26.80;12.82;;;;;;;;;;4991595;28;20503;-70
2022/12/21 02:15:26;;;;;;;31.48;11.50;;;;;;;;;;4991088;28;20057;-72
2022/12/21 02:17:51;;;;;;;25.13;11.77;;;;;;;;;;4987741;28;20014;-71
2022/12/21 02:20:26;;;;;;;29.67;11.93;;;;;;;;;;4991563;28;20017;-72
2022/12/21 02:23:06;;;;;;;27.67;12.18;;;;;;;;;;4991770;28;20588;-71
2022/12/21 02:25:50;;;;;;;23.05;11.15;;;;;;;;;;4990524;28;20042;-71
2022/12/21 02:28:27;;;;;;;24.25;11.40;;;;;;;;;;4991778;28;20026;-71
2022/12/21 02:30:58;;;;;;;26.13;12.02;;;;;;;;;;4988275;28;20022;-71
2022/12/21 02:33:32;;;;;;;26.17;12.10;;;;;;;;;;4990039;28;20018;-72
2022/12/21 02:36:06;;;;;;;23.75;12.23;;;;;;;;;;4987167;28;20018;-72
2022/12/21 02:38:42;;;;;;;30.70;13.40;;;;;;;;;;4989697;28;20022;-71
2022/12/21 02:41:13;;;;;;;34.28;13.13;;;;;;;;;;4990595;28;20398;-71
2022/12/21 02:46:28;;;;;;;27.75;12.60;;;;;;;;;;4991338;28;19952;-71
2022/12/21 02:48:56;;;;;;;30.30;13.23;;;;;;;;;;5005396;28;20471;-71
2022/12/21 02:51:25;;;;;;;31.02;14.15;;;;;;;;;;4985649;28;20022;-71
2022/12/21 02:53:51;;;;;;;32.55;14.07;;;;;;;;;;4990168;28;20018;-71
2022/12/21 02:56:17;;;;;;;26.73;13.73;;;;;;;;;;4988876;28;20033;-71
2022/12/21 02:58:42;;;;;;;30.73;14.73;;;;;;;;;;4989040;28;20026;-71
2022/12/21 03:01:13;;;;;;;36.38;14.20;;;;;;;;;;4989807;28;20029;-71
2022/12/21 03:03:47;;;;;;;35.50;15.63;;;;;;;;;;4988750;28;20078;-71
2022/12/21 03:06:25;;;;;;;34.15;14.82;;;;;;;;;;4990625;28;20019;-71
2022/12/21 03:08:59;;;;;;;32.92;15.23;;;;;;;;;;4986640;28;20026;-72
2022/12/21 03:11:30;;;;;;;33.38;16.08;;;;;;;;;;4988736;28;20015;-72
2022/12/21 03:14:07;;;;;;;37.25;17.48;;;;;;;;;;4989718;28;20076;-71
2022/12/21 03:16:44;;;;;;;28.40;16.30;;;;;;;;;;4988372;28;20018;-71
2022/12/21 03:19:09;;;;;;;32.67;17.05;;;;;;;;;;4989526;28;20467;-71
2022/12/21 03:21:38;;;;;;;36.95;18.88;;;;;;;;;;4987968;28;20033;-71
2022/12/21 03:24:03;;;;;;;37.72;17.80;;;;;;;;;;4989568;28;20254;-71
2022/12/21 03:26:35;;;;;;;37.83;19.00;;;;;;;;;;4987207;28;20041;-72
2022/12/21 03:29:00;;;;;;;40.65;18.13;;;;;;;;;;4988765;28;20307;-71
2022/12/21 03:31:28;;;;;;;37.05;17.70;;;;;;;;;;4987896;28;20445;-71
2022/12/21 03:33:57;;;;;;;35.40;18.25;;;;;;;;;;4989004;28;20018;-71
2022/12/21 03:36:28;;;;;;;38.17;17.77;;;;;;;;;;4988188;28;20014;-71
2022/12/21 03:38:56;;;;;;;36.30;17.85;;;;;;;;;;4990139;28;20483;-71
2022/12/21 03:41:33;;;;;;;37.42;18.20;;;;;;;;;;4988016;28;20029;-72
2022/12/21 03:44:01;;;;;;;33.67;16.05;;;;;;;;;;4988309;28;20023;-71
2022/12/21 03:46:31;;;;;;;43.47;19.42;;;;;;;;;;4987492;28;20033;-71
2022/12/21 03:48:58;;;;;;;35.20;16.80;;;;;;;;;;4989813;28;20018;-72
2022/12/21 03:51:43;;;;;;;29.23;15.73;;;;;;;;;;4987234;28;20509;-71
2022/12/21 03:54:17;;;;;;;30.92;17.20;;;;;;;;;;4989076;28;20041;-71
2022/12/21 03:56:42;;;;;;;29.50;16.67;;;;;;;;;;4986224;28;20101;-71
2022/12/21 03:59:09;;;;;;;32.17;16.40;;;;;;;;;;4986678;28;20150;-71
2022/12/21 04:02:13;;;;;;;32.95;16.10;;;;;;;;;;4985896;28;20014;-71
2022/12/21 04:04:41;;;;;;;39.88;15.35;;;;;;;;;;4966740;28;20019;-71
2022/12/21 04:07:07;;;;;;;45.63;15.38;;;;;;;;;;4968461;28;20070;-71
2022/12/21 04:09:32;;;;;;;37.88;15.65;;;;;;;;;;4967043;28;20027;-71
2022/12/21 04:14:41;;;;;;;32.95;15.40;;;;;;;;;;4985779;28;20085;-71
2022/12/21 04:17:06;;;;;;;34.90;15.98;;;;;;;;;;4984491;28;20018;-71
2022/12/21 04:28:07;;;;;;;29.52;15.70;;;;;;;;;;4988781;28;20338;-71
2022/12/21 04:30:28;;;;;;;32.08;14.52;;;;;;;;;;4987197;28;20382;-71
2022/12/21 04:32:53;;;;;;;42.83;15.33;;;;;;;;;;4985141;28;20019;-71
2022/12/21 04:35:18;;;;;;;34.37;15.97;;;;;;;;;;4986990;28;20328;-71
2022/12/21 04:37:44;;;;;;;34.90;15.67;;;;;;;;;;4986675;28;20831;-71
2022/12/21 04:40:09;;;;;;;41.33;18.70;;;;;;;;;;4986780;28;20261;-71
2022/12/21 04:42:34;;;;;;;41.05;18.00;;;;;;;;;;4988390;28;20479;-71
2022/12/21 04:44:59;;;;;;;51.88;19.10;;;;;;;;;;4990479;28;20041;-71
2022/12/21 04:47:24;;;;;;;37.08;16.73;;;;;;;;;;4989536;28;20390;-71
2022/12/21 04:49:50;;;;;;;39.80;17.37;;;;;;;;;;4988760;28;20471;-71
2022/12/21 04:52:15;;;;;;;50.72;18.13;;;;;;;;;;4988353;28;20308;-71
2022/12/21 04:54:40;;;;;;;38.25;16.95;;;;;;;;;;4988276;28;20084;-72
2022/12/21 04:57:06;;;;;;;44.10;15.70;;;;;;;;;;4990061;28;20042;-71
2022/12/21 04:59:31;;;;;;;41.83;16.20;;;;;;;;;;4988260;28;20714;-71
2022/12/21 05:01:56;;;;;;;40.03;16.93;;;;;;;;;;4989429;28;20018;-71
2022/12/21 05:04:21;;;;;;;38.60;15.73;;;;;;;;;;4990133;28;20797;-71
2022/12/21 05:06:47;;;;;;;29.83;12.98;;;;;;;;;;4988241;28;20027;-71
2022/12/21 05:09:13;;;;;;;41.45;14.45;;;;;;;;;;4988170;28;20010;-71
2022/12/21 05:11:39;;;;;;;37.35;14.88;;;;;;;;;;4987438;28;20714;-71
2022/12/21 05:14:04;;;;;;;30.77;15.38;;;;;;;;;;4990045;28;20026;-71
2022/12/21 05:16:29;;;;;;;33.17;14.80;;;;;;;;;;4988166;28;20014;-71
2022/12/21 05:18:56;;;;;;;40.92;15.90;;;;;;;;;;4989081;28;20663;-71
2022/12/21 05:21:21;;;;;;;32.53;15.07;;;;;;;;;;4988867;28;20010;-71
2022/12/21 05:23:46;;;;;;;40.92;15.68;;;;;;;;;;4987363;28;20415;-71
2022/12/21 05:26:11;;;;;;;32.30;15.00;;;;;;;;;;4988553;28;20030;-70
2022/12/21 05:28:37;;;;;;;39.28;15.70;;;;;;;;;;4987092;28;20325;-70
2022/12/21 05:31:03;;;;;;;39.78;16.17;;;;;;;;;;4989278;28;20019;-70
2022/12/21 05:33:28;;;;;;;40.90;15.65;;;;;;;;;;4987900;28;20018;-70
2022/12/21 05:35:53;;;;;;;36.07;15.97;;;;;;;;;;4988058;28;20025;-70
2022/12/21 05:38:18;;;;;;;39.67;16.07;;;;;;;;;;4989043;28;20305;-70
2022/12/21 05:40:47;;;;;;;37.92;16.15;;;;;;;;;;4986365;28;20281;-70
2022/12/21 05:43:12;;;;;;;39.08;16.00;;;;;;;;;;4986791;28;20010;-70
2022/12/21 05:45:37;;;;;;;44.20;17.07;;;;;;;;;;4986253;28;20049;-70
2022/12/21 05:48:02;;;;;;;35.20;15.20;;;;;;;;;;4988711;28;20373;-70
2022/12/21 05:50:28;;;;;;;38.10;16.90;;;;;;;;;;4986895;28;20269;-70
2022/12/21 05:52:53;;;;;;;42.97;14.47;;;;;;;;;;4986645;28;20615;-70
2022/12/21 05:55:18;;;;;;;36.42;15.65;;;;;;;;;;4988289;28;20364;-70
2022/12/21 05:57:43;;;;;;;38.65;16.73;;;;;;;;;;4985773;28;20018;-70
2022/12/21 06:00:09;;;;;;;38.83;15.63;;;;;;;;;;4986297;28;20010;-70
2022/12/21 06:02:34;;;;;;;46.15;16.65;;;;;;;;;;4985833;28;20019;-70
2022/12/21 06:04:59;;;;;;;41.40;17.13;;;;;;;;;;4989947;28;20479;-70
2022/12/21 06:07:24;;;;;;;33.55;14.95;;;;;;;;;;4987318;28;20033;-71
2022/12/21 06:09:50;;;;;;;38.15;16.10;;;;;;;;;;4986020;28;20029;-71
2022/12/21 06:12:15;;;;;;;43.78;14.10;;;;;;;;;;4986458;28;20113;-71
2022/12/21 06:14:40;;;;;;;38.73;15.10;;;;;;;;;;4985090;28;20492;-70
2022/12/21 06:17:05;;;;;;;42.97;16.05;;;;;;;;;;4985608;28;20253;-71
2022/12/21 06:19:30;;;;;;;40.13;14.85;;;;;;;;;;4985783;28;20018;-70
2022/12/21 06:21:55;;;;;;;59.10;15.97;;;;;;;;;;4986092;28;20102;-70
2022/12/21 06:24:21;;;;;;;39.47;14.60;;;;;;;;;;4987162;28;20253;-70
2022/12/21 06:26:46;;;;;;;50.83;15.30;;;;;;;;;;4984946;28;20270;-71
2022/12/21 06:29:11;;;;;;;36.40;14.63;;;;;;;;;;4987338;28;20014;-70
2022/12/21 06:31:37;;;;;;;50.00;15.77;;;;;;;;;;4984693;28;20057;-70
2022/12/21 06:34:02;;;;;;;34.38;13.77;;;;;;;;;;4986225;28;20256;-70
2022/12/21 06:36:27;;;;;;;42.03;15.30;;;;;;;;;;4985747;28;20014;-69
2022/12/21 06:38:52;;;;;;;39.20;13.10;;;;;;;;;;4985381;28;20102;-70
2022/12/21 06:41:18;;;;;;;32.05;13.75;;;;;;;;;;4986658;28;20022;-69
2022/12/21 06:43:43;;;;;;;32.28;13.07;;;;;;;;;;4983784;28;20011;-69
2022/12/21 06:46:10;;;;;;;41.63;13.45;;;;;;;;;;4986803;28;20027;-70
2022/12/21 06:48:36;;;;;;;33.38;12.85;;;;;;;;;;4984027;28;20026;-70
2022/12/21 06:51:06;;;;;;;34.13;13.98;;;;;;;;;;4984332;28;20076;-70
2022/12/21 06:53:32;;;;;;;47.67;15.00;;;;;;;;;;4984759;28;20452;-71
2022/12/21 06:55:58;;;;;;;32.42;14.13;;;;;;;;;;4985050;28;20388;-70
2022/12/21 06:58:24;;;;;;;37.28;14.52;;;;;;;;;;4985221;28;20010;-70
2022/12/21 07:00:49;;;;;;;31.73;13.23;;;;;;;;;;4983802;28;20503;-70
2022/12/21 07:03:14;;;;;;;32.17;13.07;;;;;;;;;;4985315;28;20202;-70
2022/12/21 07:05:39;;;;;;;25.25;12.35;;;;;;;;;;4982927;28;20083;-69
2022/12/21 07:08:04;;;;;;;30.67;11.47;;;;;;;;;;4984426;28;20093;-70
2022/12/21 07:10:30;;;;;;;26.40;11.98;;;;;;;;;;4982965;28;20258;-70
2022/12/21 07:12:55;;;;;;;21.67;9.13;;;;;;;;;;4984263;28;20089;-70
2022/12/21 07:15:20;;;;;;;22.33;10.10;;;;;;;;;;4985557;28;20014;-70
2022/12/21 07:17:45;;;;;;;20.30;7.88;;;;;;;;;;4983164;28;20027;-70
2022/12/21 07:20:10;;;;;;;19.03;7.37;;;;;;;;;;4985032;28;20011;-70
2022/12/21 07:22:36;;;;;;;19.17;8.43;;;;;;;;;;4983121;28;20285;-70
2022/12/21 07:25:01;;;;;;;23.73;6.37;;;;;;;;;;4983763;28;20018;-70
2022/12/21 07:27:26;;;;;;;12.52;6.25;;;;;;;;;;4984270;28;20344;-70
2022/12/21 07:29:51;;;;;;;15.80;6.73;;;;;;;;;;4983330;28;20026;-70
2022/12/21 07:32:16;;;;;;;8.60;4.00;;;;;;;;;;4985296;28;20261;-70
2022/12/21 07:34:42;;;;;;;17.48;7.25;;;;;;;;;;4982027;28;20811;-70
2022/12/21 07:37:07;;;;;;;20.47;9.07;;;;;;;;;;4985259;28;20468;-71
2022/12/21 07:39:32;;;;;;;13.13;6.87;;;;;;;;;;4981775;28;20297;-71
2022/12/21 07:41:57;;;;;;;14.65;6.95;;;;;;;;;;4979539;28;20264;-71
2022/12/21 07:44:22;;;;;;;15.60;5.70;;;;;;;;;;4984473;28;20022;-71
2022/12/21 07:46:47;;;;;;;19.70;6.63;;;;;;;;;;4982456;28;20377;-71
2022/12/21 07:49:13;;;;;;;10.63;4.73;;;;;;;;;;4984674;28;20753;-71
2022/12/21 07:51:38;;;;;;;13.47;5.50;;;;;;;;;;4981431;28;20273;-71
2022/12/21 07:54:04;;;;;;;15.23;5.65;;;;;;;;;;4984089;28;20300;-71
2022/12/21 07:56:29;;;;;;;9.48;4.57;;;;;;;;;;4982884;28;20022;-71
2022/12/21 07:58:54;;;;;;;10.13;5.30;;;;;;;;;;4981461;28;20015;-72
2022/12/21 08:01:19;;;;;;;20.25;5.95;;;;;;;;;;4984078;28;20611;-71
2022/12/21 08:03:45;;;;;;;10.18;5.38;;;;;;;;;;4981042;28;20019;-71
2022/12/21 08:06:11;;;;;;;12.20;5.63;;;;;;;;;;4983475;28;20107;-71
2022/12/21 08:08:37;;;;;;;10.23;5.07;;;;;;;;;;4987861;28;20022;-71
2022/12/21 08:11:03;;;;;;;9.10;4.55;;;;;;;;;;4984482;28;20023;-71
2022/12/21 08:13:29;;;;;;;9.80;4.95;;;;;;;;;;4982835;28;20483;-71
2022/12/21 08:16:04;;;;;;;13.15;5.55;;;;;;;;;;4984303;28;20480;-71
2022/12/21 08:18:30;;;;;;;9.93;5.13;;;;;;;;;;4982113;28;20076;-71
2022/12/21 08:20:56;;;;;;;13.02;5.80;;;;;;;;;;4981703;28;20543;-70
2022/12/21 08:23:21;;;;;;;14.77;5.22;;;;;;;;;;4983409;28;20015;-70
2022/12/21 08:25:46;;;;;;;14.52;6.13;;;;;;;;;;4980545;28;20387;-71
2022/12/21 08:28:12;;;;;;;13.87;5.53;;;;;;;;;;4986899;28;20025;-71
2022/12/21 08:30:38;;;;;;;14.82;5.78;;;;;;;;;;4980914;28;20265;-71
2022/12/21 08:33:03;;;;;;;13.65;5.85;;;;;;;;;;4982240;28;20042;-71
2022/12/21 08:35:29;;;;;;;12.70;5.00;;;;;;;;;;4982358;28;20108;-71
2022/12/21 08:37:54;;;;;;;11.73;5.13;;;;;;;;;;4981579;28;20735;-71
2022/12/21 08:40:19;;;;;;;11.00;6.45;;;;;;;;;;4982072;28;20015;-71
2022/12/21 08:42:44;;;;;;;13.57;4.60;;;;;;;;;;4983657;28;20353;-71
2022/12/21 08:45:09;;;;;;;12.07;5.27;;;;;;;;;;4982840;28;20419;-71
2022/12/21 08:47:36;;;;;;;11.32;5.97;;;;;;;;;;4982554;28;20265;-71
2022/12/21 08:50:01;;;;;;;18.58;6.05;;;;;;;;;;4984832;28;20049;-71
2022/12/21 08:52:26;;;;;;;12.18;6.32;;;;;;;;;;4984907;28;20062;-71
2022/12/21 08:54:51;;;;;;;11.07;5.50;;;;;;;;;;4979694;28;20062;-71
2022/12/21 08:57:16;;;;;;;10.90;5.50;;;;;;;;;;4982528;28;20742;-71
2022/12/21 08:59:41;;;;;;;11.57;5.43;;;;;;;;;;4979414;28;20250;-71
2022/12/21 09:02:09;;;;;;;11.05;5.22;;;;;;;;;;4981525;28;20245;-71
2022/12/21 09:04:34;;;;;;;13.27;6.07;;;;;;;;;;4981020;28;20069;-71
2022/12/21 09:06:59;;;;;;;18.90;6.13;;;;;;;;;;4984619;28;20411;-71
2022/12/21 09:09:26;;;;;;;13.23;5.53;;;;;;;;;;4981730;28;20260;-71
2022/12/21 09:11:51;;;;;;;10.82;5.05;;;;;;;;;;4979591;28;20679;-71
2022/12/21 09:14:16;;;;;;;12.80;5.35;;;;;;;;;;4982876;28;20014;-72
2022/12/21 09:16:42;;;;;;;12.13;6.25;;;;;;;;;;4979356;28;20161;-72
2022/12/21 09:19:07;;;;;;;12.68;6.22;;;;;;;;;;4981657;28;20011;-71
2022/12/21 09:21:33;;;;;;;14.48;5.93;;;;;;;;;;4980249;28;20022;-71
2022/12/21 09:23:58;;;;;;;13.82;5.85;;;;;;;;;;4984000;28;20026;-71
2022/12/21 09:26:23;;;;;;;14.32;5.80;;;;;;;;;;4981555;28;20022;-71
2022/12/21 09:28:48;;;;;;;18.95;6.80;;;;;;;;;;4988564;28;20356;-71
2022/12/21 09:31:18;;;;;;;17.57;6.87;;;;;;;;;;4985266;28;20019;-71
2022/12/21 09:33:43;;;;;;;15.88;6.50;;;;;;;;;;4985231;28;20265;-71
2022/12/21 09:36:09;;;;;;;14.95;7.18;;;;;;;;;;4985333;28;20070;-70
2022/12/21 09:38:34;;;;;;;15.68;7.05;;;;;;;;;;4985446;28;20093;-71
2022/12/21 09:41:00;;;;;;;15.65;7.00;;;;;;;;;;4988894;28;20019;-72
2022/12/21 09:43:35;;;;;;;16.13;7.88;;;;;;;;;;4984361;28;20101;-71
2022/12/21 09:46:01;;;;;;;17.42;6.82;;;;;;;;;;4991265;28;20010;-71
2022/12/21 09:48:49;;;;;;;18.40;6.65;;;;;;;;;;4988679;28;20068;-72
2022/12/21 09:51:17;;;;;;;16.25;7.93;;;;;;;;;;4985745;28;20030;-70
2022/12/21 09:53:45;;;;;;;24.85;8.82;;;;;;;;;;4992460;28;20019;-70
2022/12/21 09:56:14;;;;;;;19.08;9.15;;;;;;;;;;4992643;28;20578;-70
2022/12/21 09:58:41;;;;;;;15.85;8.50;;;;;;;;;;4988587;28;20403;-70
2022/12/21 10:01:22;;;;;;;19.60;9.02;;;;;;;;;;4992333;28;20018;-70
2022/12/21 10:04:06;;;;;;;16.70;9.27;;;;;;;;;;4989240;28;20026;-70
2022/12/21 10:06:37;;;;;;;14.48;8.93;;;;;;;;;;4988493;28;20572;-70
2022/12/21 10:09:05;;;;;;;17.65;9.15;;;;;;;;;;4992493;28;20026;-70
2022/12/21 10:11:43;;;;;;;16.02;8.73;;;;;;;;;;4984201;28;20097;-70
2022/12/21 10:14:29;;;;;;;25.98;11.65;;;;;;;;;;4981865;28;20109;-69
2022/12/21 10:17:15;;;;;;;19.70;10.27;;;;;;;;;;4985469;28;20022;-70
2022/12/21 10:19:40;;;;;;;21.52;11.77;;;;;;;;;;4973216;28;20120;-70
2022/12/21 10:22:08;;;;;;;26.77;12.88;;;;;;;;;;4991807;28;20073;-70
2022/12/21 10:24:36;;;;;;;21.63;11.00;;;;;;;;;;4989709;28;20011;-70
2022/12/21 10:27:07;;;;;;;19.98;10.13;;;;;;;;;;4990118;28;20026;-70
2022/12/21 10:29:35;;;;;;;24.42;10.73;;;;;;;;;;4991468;28;20019;-70
2022/12/21 10:32:00;;;;;;;19.80;11.68;;;;;;;;;;4987829;28;20097;-70
2022/12/21 10:34:35;;;;;;;27.20;11.27;;;;;;;;;;4992103;28;20194;-70
2022/12/21 10:37:02;;;;;;;28.85;12.98;;;;;;;;;;4992053;28;20037;-70
2022/12/21 10:39:28;;;;;;;29.65;12.98;;;;;;;;;;4990410;28;20022;-70
2022/12/21 10:42:01;;;;;;;37.80;15.73;;;;;;;;;;4991515;28;20055;-70
2022/12/21 10:44:26;;;;;;;36.78;15.15;;;;;;;;;;4992116;28;20014;-70
2022/12/21 10:46:52;;;;;;;31.60;15.67;;;;;;;;;;4991819;28;20125;-69
2022/12/21 10:49:35;;;;;;;25.97;12.47;;;;;;;;;;4988136;28;20256;-69
2022/12/21 10:52:20;;;;;;;25.95;12.35;;;;;;;;;;4991499;28;20797;-70
2022/12/21 10:54:48;;;;;;;28.73;12.82;;;;;;;;;;4991909;28;20041;-70
2022/12/21 10:57:13;;;;;;;27.90;11.63;;;;;;;;;;4991624;28;20483;-70
2022/12/21 10:59:41;;;;;;;33.50;12.80;;;;;;;;;;4991437;28;20058;-70
2022/12/21 11:02:07;;;;;;;27.08;14.23;;;;;;;;;;4990565;28;20109;-70
2022/12/21 11:04:32;;;;;;;29.23;14.57;;;;;;;;;;4991706;28;20486;-70
2022/12/21 11:07:01;;;;;;;25.00;11.63;;;;;;;;;;4991328;28;20042;-70
2022/12/21 11:09:26;;;;;;;24.73;9.20;;;;;;;;;;4991676;28;20041;-69
2022/12/21 11:11:52;;;;;;;23.13;10.48;;;;;;;;;;4991050;28;20014;-69
2022/12/21 11:14:17;;;;;;;25.67;10.23;;;;;;;;;;4991081;28;20385;-70
2022/12/21 11:16:47;;;;;;;23.30;8.70;;;;;;;;;;4991094;28;20117;-69
2022/12/21 11:19:16;;;;;;;29.75;10.00;;;;;;;;;;4991372;28;20419;-69
2022/12/21 11:21:44;;;;;;;23.33;8.65;;;;;;;;;;4990662;28;20077;-69
2022/12/21 11:24:16;;;;;;;24.58;9.25;;;;;;;;;;4991017;28;20022;-69
2022/12/21 11:26:51;;;;;;;19.95;7.80;;;;;;;;;;4990932;28;20073;-69
2022/12/21 11:29:20;;;;;;;25.80;8.38;;;;;;;;;;4991014;28;20056;-69
2022/12/21 11:31:45;;;;;;;28.90;9.88;;;;;;;;;;4986952;28;20034;-69
2022/12/21 11:34:40;;;;;;;17.58;7.13;;;;;;;;;;4990951;28;20025;-70
2022/12/21 11:37:23;;;;;;;23.75;7.95;;;;;;;;;;4988911;28;20076;-68
2022/12/21 11:39:48;;;;;;;30.48;7.47;;;;;;;;;;4990875;28;20080;-68
2022/12/21 11:42:21;;;;;;;21.02;7.07;;;;;;;;;;4990797;28;20476;-68
2022/12/21 11:44:47;;;;;;;26.00;6.70;;;;;;;;;;4987625;28;20022;-69
2022/12/21 11:47:23;;;;;;;25.55;7.75;;;;;;;;;;4990820;28;20089;-69
2022/12/21 11:50:04;;;;;;;34.75;6.03;;;;;;;;;;4989378;28;20383;-69
2022/12/21 11:52:44;;;;;;;22.35;5.47;;;;;;;;;;4984735;28;20018;-69
2022/12/21 11:55:09;;;;;;;;;;;;;;;;;;4990861;28;20018;-69
2022/12/21 11:57:37;;;;;;;16.30;5.45;;;;;;;;;;4990582;28;19933;-69
2022/12/21 12:00:09;;;;;;;30.45;6.30;;;;;;;;;;4983964;28;20022;-68
2022/12/21 12:02:49;;;;;;;25.33;6.10;;;;;;;;;;4990620;28;20093;-68
2022/12/21 12:05:34;;;;;;;26.70;6.68;;;;;;;;;;4990144;28;20022;-68
2022/12/21 12:08:17;;;;;;;21.95;6.25;;;;;;;;;;4990889;28;20033;-69
2022/12/21 12:11:01;;;;;;;17.38;7.18;;;;;;;;;;4990646;28;20030;-69
2022/12/21 12:13:26;;;;;;;21.15;6.88;;;;;;;;;;4987245;28;20022;-69
2022/12/21 12:16:12;;;;;;;22.90;7.95;;;;;;;;;;4989443;28;20491;-69
2022/12/21 12:18:43;;;;;;;17.63;7.40;;;;;;;;;;4988387;28;20010;-68
2022/12/21 12:21:14;;;;;;;21.20;7.63;;;;;;;;;;4989003;28;20026;-69
2022/12/21 12:23:49;;;;;;;16.77;7.30;;;;;;;;;;4990276;28;20084;-69
2022/12/21 12:26:19;;;;;;;26.48;8.23;;;;;;;;;;4990635;28;20015;-69
2022/12/21 12:29:03;;;;;;;23.52;9.52;;;;;;;;;;4986820;28;20541;-68
2022/12/21 12:31:34;;;;;;;24.92;8.15;;;;;;;;;;4986493;28;20033;-68
2022/12/21 12:34:11;;;;;;;14.65;6.80;;;;;;;;;;4989106;28;20022;-69
2022/12/21 12:36:39;;;;;;;19.48;6.75;;;;;;;;;;4985407;28;20571;-69
2022/12/21 12:39:22;;;;;;;25.35;7.25;;;;;;;;;;4986181;28;20541;-69
2022/12/21 12:42:07;;;;;;;20.88;8.60;;;;;;;;;;4990199;28;20030;-68
2022/12/21 12:44:55;;;;;;;19.98;6.55;;;;;;;;;;4986506;28;20037;-69
2022/12/21 12:47:31;;;;;;;16.42;6.40;;;;;;;;;;4990262;28;20045;-68
2022/12/21 12:50:19;;;;;;;21.15;7.78;;;;;;;;;;4986696;28;20022;-69
2022/12/21 12:52:58;;;;;;;20.25;7.95;;;;;;;;;;4986707;28;20518;-67
2022/12/21 12:55:42;;;;;;;20.15;7.80;;;;;;;;;;4982703;28;20018;-69
2022/12/21 12:58:14;;;;;;;16.17;6.63;;;;;;;;;;4989846;28;20069;-69
2022/12/21 13:00:48;;;;;;;13.55;4.85;;;;;;;;;;4986235;28;20054;-69
2022/12/21 13:03:30;;;;;;;12.07;4.18;;;;;;;;;;4992950;28;20422;-69
2022/12/21 13:06:01;;;;;;;11.00;3.92;;;;;;;;;;4992552;28;20096;-69
2022/12/21 13:08:32;;;;;;;7.70;2.97;;;;;;;;;;4991418;28;20042;-69
2022/12/21 13:11:09;;;;;;;12.48;3.42;;;;;;;;;;4993826;28;20029;-69
2022/12/21 13:13:57;;;;;;;21.92;4.43;;;;;;;;;;4987593;28;20034;-69
2022/12/21 13:16:30;;;;;;;10.57;2.95;;;;;;;;;;4993223;28;20080;-69
2022/12/21 13:18:57;;;;;;;15.45;3.10;;;;;;;;;;4993705;28;20072;-69
2022/12/21 13:21:24;;;;;;;9.85;3.08;;;;;;;;;;4993108;28;20456;-69
2022/12/21 13:23:51;;;;;;;11.48;3.88;;;;;;;;;;4993494;28;20022;-69
2022/12/21 13:26:36;;;;;;;13.25;3.30;;;;;;;;;;4989537;28;20029;-69
2022/12/21 13:29:10;;;;;;;7.35;2.80;;;;;;;;;;4993299;28;20025;-69
2022/12/21 13:31:41;;;;;;;17.65;3.42;;;;;;;;;;4992926;28;20026;-68
2022/12/21 13:34:11;;;;;;;13.05;2.50;;;;;;;;;;4993226;28;20029;-70
2022/12/21 13:36:38;;;;;;;7.53;2.70;;;;;;;;;;4988736;28;20022;-69
2022/12/21 13:39:06;;;;;;;8.55;3.42;;;;;;;;;;4992182;28;20101;-69
2022/12/21 13:41:35;;;;;;;11.05;2.95;;;;;;;;;;4989253;28;20122;-68
2022/12/21 13:44:10;;;;;;;5.40;1.63;;;;;;;;;;4993348;28;20010;-69
2022/12/21 13:46:37;;;;;;;11.63;2.58;;;;;;;;;;4989383;28;20045;-69
2022/12/21 13:49:25;;;;;;;8.48;2.05;;;;;;;;;;4988360;28;20029;-67
2022/12/21 13:51:55;;;;;;;8.30;2.45;;;;;;;;;;4986407;28;20137;-68
2022/12/21 13:54:23;;;;;;;11.73;2.10;;;;;;;;;;4986730;28;20614;-69
2022/12/21 13:57:07;;;;;;;8.98;2.47;;;;;;;;;;4991695;28;20037;-68
2022/12/21 13:59:39;;;;;;;11.82;2.60;;;;;;;;;;4989317;28;20010;-68
2022/12/21 14:02:18;;;;;;;12.77;2.85;;;;;;;;;;4992663;28;20027;-69
2022/12/21 14:04:46;;;;;;;11.95;2.78;;;;;;;;;;4989398;28;20015;-69
2022/12/21 14:07:13;;;;;;;15.65;2.42;;;;;;;;;;4992486;28;20625;-68
2022/12/21 14:09:48;;;;;;;9.98;2.78;;;;;;;;;;4992654;28;20101;-69
2022/12/21 14:12:31;;;;;;;5.65;2.65;;;;;;;;;;4992022;28;20422;-68
2022/12/21 14:15:03;;;;;;;11.75;2.80;;;;;;;;;;4987516;28;20026;-69
2022/12/21 14:17:33;;;;;;;13.57;3.20;;;;;;;;;;4991694;28;20032;-69
2022/12/21 14:19:58;;;;;;;8.98;3.22;;;;;;;;;;4992552;28;20101;-69
2022/12/21 14:22:34;;;;;;;13.40;3.10;;;;;;;;;;4988136;28;20452;-69
2022/12/21 14:25:01;;;;;;;18.00;4.32;;;;;;;;;;4992516;28;20022;-69
2022/12/21 14:27:26;;;;;;;9.32;2.60;;;;;;;;;;4990739;28;20065;-68
2022/12/21 14:30:02;;;;;;;11.00;3.15;;;;;;;;;;4988424;28;20046;-68
2022/12/21 14:32:28;;;;;;;8.43;2.83;;;;;;;;;;4987280;28;20010;-68
2022/12/21 14:34:57;;;;;;;13.43;3.17;;;;;;;;;;4989583;28;20026;-69
2022/12/21 14:37:24;;;;;;;7.30;3.40;;;;;;;;;;4992002;28;20097;-69
2022/12/21 14:40:08;;;;;;;9.70;3.40;;;;;;;;;;4991725;28;20014;-69
2022/12/21 14:42:47;;;;;;;12.27;2.80;;;;;;;;;;4987968;28;20015;-69
2022/12/21 14:45:12;;;;;;;8.07;2.75;;;;;;;;;;4991844;28;20529;-69
2022/12/21 14:47:38;;;;;;;10.23;3.17;;;;;;;;;;4991711;28;20014;-69